createdAt,value
2018-01-15T00:01:58.286Z,76.73
2018-01-15T00:04:25.058Z,76.49
2018-01-15T00:06:51.903Z,75.84
2018-01-15T00:09:18.727Z,76.24
2018-01-15T00:11:45.513Z,76.97
2018-01-15T00:14:12.306Z,76.84
2018-01-15T00:16:39.143Z,76.21
2018-01-15T00:19:05.981Z,76.63
2018-01-15T00:21:32.808Z,76.84
2018-01-15T00:23:59.633Z,76.92
2018-01-15T00:26:26.445Z,76.79
2018-01-15T00:28:54.097Z,76.51
2018-01-15T00:31:20.922Z,76.23
2018-01-15T00:33:47.759Z,75.56
2018-01-15T00:36:14.614Z,76.00
2018-01-15T00:38:41.492Z,75.68
2018-01-15T00:41:08.340Z,76.11
2018-01-15T00:43:35.172Z,75.81
2018-01-15T00:46:02.018Z,76.26
2018-01-15T00:48:28.900Z,76.19
2018-01-15T00:50:55.704Z,76.39
2018-01-15T00:53:22.526Z,76.65
2018-01-15T00:55:50.072Z,76.31
2018-01-15T00:58:16.916Z,76.28
2018-01-15T01:00:43.864Z,76.69
2018-01-15T01:03:10.730Z,76.24
2018-01-15T01:05:37.602Z,76.70
2018-01-15T01:08:04.436Z,76.94
2018-01-15T01:10:31.288Z,77.17
2018-01-15T01:12:58.156Z,76.71
2018-01-15T01:15:25.067Z,75.92
2018-01-15T01:17:51.934Z,76.52
2018-01-15T01:20:18.804Z,76.53
2018-01-15T01:22:45.659Z,76.76
2018-01-15T01:25:12.437Z,77.27
2018-01-15T01:27:39.231Z,76.70
2018-01-15T01:30:06.056Z,76.67
2018-01-15T01:32:32.835Z,76.58
2018-01-15T01:35:00.381Z,76.89
2018-01-15T01:37:27.150Z,77.11
2018-01-15T01:39:53.988Z,77.25
2018-01-15T01:42:20.815Z,77.66
2018-01-15T01:44:47.582Z,76.84
2018-01-15T01:47:14.385Z,77.46
2018-01-15T01:49:41.193Z,77.36
2018-01-15T01:52:07.937Z,77.33
2018-01-15T01:54:34.778Z,77.56
2018-01-15T01:57:01.613Z,77.46
2018-01-15T01:59:28.486Z,77.60
2018-01-15T02:01:55.304Z,77.78
2018-01-15T02:04:22.135Z,77.06
2018-01-15T02:06:49.759Z,77.53
2018-01-15T02:09:16.597Z,77.00
2018-01-15T02:11:43.467Z,77.91
2018-01-15T02:14:10.345Z,77.80
2018-01-15T02:16:37.131Z,77.94
2018-01-15T02:19:04.003Z,77.79
2018-01-15T02:21:30.940Z,78.05
2018-01-15T02:23:58.805Z,78.12
2018-01-15T02:26:25.657Z,78.17
2018-01-15T02:28:52.553Z,77.63
2018-01-15T02:31:19.460Z,77.89
2018-01-15T02:33:46.339Z,77.42
2018-01-15T02:36:13.214Z,77.87
2018-01-15T02:38:40.124Z,77.52
2018-01-15T02:41:07.035Z,78.17
2018-01-15T02:43:33.919Z,77.92
2018-01-15T02:46:00.822Z,78.52
2018-01-15T02:48:28.421Z,78.21
2018-01-15T02:50:55.310Z,78.57
2018-01-15T02:53:22.239Z,78.54
2018-01-15T02:55:49.127Z,78.81
2018-01-15T02:58:16.006Z,78.90
2018-01-15T03:00:42.980Z,79.02
2018-01-15T03:03:09.940Z,78.83
2018-01-15T03:05:36.927Z,79.46
2018-01-15T03:08:03.818Z,79.40
2018-01-15T03:10:30.663Z,79.78
2018-01-15T03:12:58.243Z,79.51
2018-01-15T03:15:25.787Z,79.31
2018-01-15T03:20:52.978Z,79.22
2018-01-15T03:23:19.747Z,78.90
2018-01-15T03:25:46.578Z,79.05
2018-01-15T03:28:13.361Z,79.28
2018-01-15T03:30:40.155Z,79.20
2018-01-15T03:33:07.671Z,78.81
2018-01-15T03:35:34.454Z,78.45
2018-01-15T03:38:01.265Z,78.94
2018-01-15T03:40:29.952Z,78.82
2018-01-15T03:42:56.718Z,78.51
2018-01-15T03:45:23.491Z,79.25
2018-01-15T03:47:50.278Z,78.91
2018-01-15T03:50:17.069Z,79.12
2018-01-15T03:52:43.832Z,78.94
2018-01-15T03:55:10.665Z,78.71
2018-01-15T03:57:37.465Z,79.08
2018-01-15T04:00:05.501Z,79.20
2018-01-15T04:02:32.315Z,78.91
2018-01-15T04:04:59.883Z,78.78
2018-01-15T04:07:26.667Z,79.17
2018-01-15T04:09:53.452Z,79.06
2018-01-15T04:12:20.273Z,79.17
2018-01-15T04:14:47.825Z,79.13
2018-01-15T04:17:14.628Z,79.12
2018-01-15T04:19:41.382Z,79.61
2018-01-15T04:22:08.203Z,79.44
2018-01-15T04:24:35.063Z,79.48
2018-01-15T04:27:01.883Z,79.60
2018-01-15T04:29:28.708Z,79.01
2018-01-15T04:31:56.272Z,79.17
2018-01-15T04:34:23.151Z,79.36
2018-01-15T04:36:51.061Z,79.14
2018-01-15T04:39:17.901Z,79.28
2018-01-15T04:44:45.499Z,79.39
2018-01-15T04:47:13.772Z,79.00
2018-01-15T04:49:40.554Z,79.23
2018-01-15T04:52:08.056Z,79.68
2018-01-15T04:54:34.831Z,79.18
2018-01-15T04:57:01.631Z,79.56
2018-01-15T04:59:28.428Z,79.50
2018-01-15T05:01:55.203Z,79.64
2018-01-15T05:04:22.064Z,79.22
2018-01-15T05:06:48.917Z,79.68
2018-01-15T05:09:15.702Z,79.75
2018-01-15T05:11:42.503Z,80.00
2018-01-15T05:14:10.025Z,79.82
2018-01-15T05:16:36.850Z,79.88
2018-01-15T05:19:03.725Z,80.12
2018-01-15T05:21:30.542Z,80.30
2018-01-15T05:23:57.408Z,80.53
2018-01-15T05:26:24.220Z,80.40
2018-01-15T05:28:51.024Z,80.33
2018-01-15T05:31:19.271Z,79.95
2018-01-15T05:33:47.132Z,79.70
2018-01-15T05:36:14.807Z,79.83
2018-01-15T05:38:41.774Z,79.93
2018-01-15T05:41:08.664Z,79.85
2018-01-15T05:43:35.420Z,79.98
2018-01-15T05:46:03.010Z,79.87
2018-01-15T05:48:29.830Z,79.55
2018-01-15T05:50:57.397Z,79.73
2018-01-15T05:53:25.330Z,79.55
2018-01-15T05:55:52.170Z,79.67
2018-01-15T05:58:19.005Z,79.85
2018-01-15T06:00:46.581Z,79.63
2018-01-15T06:03:15.925Z,79.71
2018-01-15T06:05:42.730Z,79.46
2018-01-15T06:08:09.549Z,80.30
2018-01-15T06:10:36.423Z,79.56
2018-01-15T06:13:03.267Z,79.69
2018-01-15T06:15:30.147Z,79.55
2018-01-15T06:17:56.950Z,79.45
2018-01-15T06:20:23.765Z,79.68
2018-01-15T06:22:50.613Z,79.98
2018-01-15T06:25:17.427Z,79.86
2018-01-15T06:27:44.301Z,80.30
2018-01-15T06:30:11.890Z,80.05
2018-01-15T06:32:39.544Z,80.08
2018-01-15T06:35:06.439Z,80.04
2018-01-15T06:37:34.127Z,80.01
2018-01-15T06:40:01.258Z,80.13
2018-01-15T06:42:28.281Z,80.41
2018-01-15T06:44:55.878Z,80.28
2018-01-15T06:47:22.803Z,80.34
2018-01-15T06:49:49.772Z,80.43
2018-01-15T06:52:16.655Z,80.39
2018-01-15T06:54:43.484Z,80.66
2018-01-15T06:57:10.338Z,81.12
2018-01-15T06:59:38.397Z,80.79
2018-01-15T07:02:05.273Z,80.73
2018-01-15T07:04:32.133Z,81.06
2018-01-15T07:06:59.024Z,81.13
2018-01-15T07:09:25.865Z,81.54
2018-01-15T07:12:07.867Z,81.51
2018-01-15T07:14:34.707Z,81.76
2018-01-15T07:17:01.589Z,81.32
2018-01-15T07:19:28.423Z,81.65
2018-01-15T07:21:55.296Z,81.40
2018-01-15T07:24:22.180Z,81.57
2018-01-15T07:26:49.839Z,82.00
2018-01-15T07:29:16.783Z,81.98
2018-01-15T07:31:43.638Z,82.03
2018-01-15T07:34:11.258Z,82.29
2018-01-15T07:36:38.068Z,81.97
2018-01-15T07:39:05.025Z,81.95
2018-01-15T07:41:31.812Z,82.32
2018-01-15T08:02:39.244Z,82.81
2018-01-15T08:05:06.137Z,82.42
2018-01-15T08:07:33.050Z,82.49
2018-01-15T08:09:59.958Z,82.36
2018-01-15T08:12:26.811Z,82.63
2018-01-15T08:14:54.425Z,82.88
2018-01-15T08:17:21.258Z,82.58
2018-01-15T08:19:48.914Z,82.65
2018-01-15T08:22:16.685Z,82.79
2018-01-15T08:24:43.653Z,82.64
2018-01-15T08:27:11.528Z,82.48
2018-01-15T08:29:38.574Z,82.68
2018-01-15T08:32:05.625Z,82.51
2018-01-15T08:34:32.681Z,82.26
2018-01-15T08:36:59.784Z,82.36
2018-01-15T08:39:26.827Z,82.25
2018-01-15T08:41:53.820Z,82.09
2018-01-15T08:44:21.140Z,82.11
2018-01-15T08:46:48.136Z,82.16
2018-01-15T08:49:15.281Z,82.05
2018-01-15T08:51:42.287Z,82.24
2018-01-15T08:54:09.220Z,82.36
2018-01-15T08:56:36.159Z,82.31
2018-01-15T08:59:03.138Z,82.14
2018-01-15T09:01:30.038Z,82.54
2018-01-15T09:03:57.014Z,82.13
2018-01-15T09:06:24.103Z,82.22
2018-01-15T09:08:50.987Z,82.28
2018-01-15T09:11:17.985Z,82.13
2018-01-15T09:13:44.910Z,82.32
2018-01-15T09:16:11.922Z,82.07
2018-01-15T09:18:38.867Z,82.01
2018-01-15T09:21:05.840Z,82.00
2018-01-15T09:23:32.943Z,81.73
2018-01-15T09:25:59.746Z,81.73
2018-01-15T09:28:26.622Z,81.78
2018-01-15T09:30:53.583Z,81.65
2018-01-15T09:33:20.598Z,81.51
2018-01-15T09:35:48.234Z,81.58
2018-01-15T09:38:15.136Z,81.53
2018-01-15T09:40:42.012Z,81.37
2018-01-15T09:43:08.854Z,81.44
2018-01-15T09:45:36.513Z,81.23
2018-01-15T09:48:03.435Z,81.10
2018-01-15T09:50:30.405Z,81.09
2018-01-15T09:52:57.289Z,81.23
2018-01-15T09:55:24.156Z,81.00
2018-01-15T09:57:51.104Z,80.82
2018-01-15T10:00:18.008Z,80.95
2018-01-15T10:02:44.958Z,80.45
2018-01-15T10:05:12.700Z,80.47
2018-01-15T10:07:39.609Z,80.12
2018-01-15T10:10:06.566Z,80.02
2018-01-15T10:12:33.494Z,80.37
2018-01-15T10:15:00.363Z,80.28
2018-01-15T10:17:27.274Z,80.08
2018-01-15T10:19:55.018Z,80.33
2018-01-15T10:22:22.083Z,80.17
2018-01-15T10:24:49.129Z,80.16
2018-01-15T10:27:16.091Z,80.29
2018-01-15T10:29:42.987Z,80.22
2018-01-15T10:32:09.904Z,80.35
2018-01-15T10:34:36.917Z,80.10
2018-01-15T10:37:03.911Z,80.13
2018-01-15T10:39:30.926Z,80.08
2018-01-15T10:41:57.909Z,80.25
2018-01-15T10:44:24.802Z,80.25
2018-01-15T10:46:53.502Z,79.86
2018-01-15T10:49:22.318Z,79.67
2018-01-15T10:51:53.141Z,79.82
2018-01-15T10:54:19.996Z,79.83
2018-01-15T10:56:46.978Z,80.10
2018-01-15T10:59:13.863Z,80.22
2018-01-15T11:01:40.765Z,80.03
2018-01-15T11:04:07.650Z,80.15
2018-01-15T11:06:34.581Z,79.91
2018-01-15T11:09:01.416Z,79.80
2018-01-15T11:11:28.331Z,79.67
2018-01-15T11:13:55.318Z,79.71
2018-01-15T11:16:23.086Z,79.74
2018-01-15T11:18:50.717Z,79.69
2018-01-15T11:21:17.557Z,79.61
2018-01-15T11:23:45.195Z,79.73
2018-01-15T11:26:12.075Z,79.13
2018-01-15T11:28:39.813Z,79.35
2018-01-15T11:31:06.835Z,79.54
2018-01-15T11:33:34.496Z,79.45
2018-01-15T11:36:01.495Z,79.49
2018-01-15T11:38:28.497Z,79.31
2018-01-15T11:40:55.579Z,79.77
2018-01-15T11:43:22.607Z,79.95
2018-01-15T11:45:49.847Z,79.85
2018-01-15T11:48:17.612Z,80.07
2018-01-15T11:50:46.906Z,80.38
2018-01-15T11:53:21.781Z,80.28
2018-01-15T11:55:51.382Z,80.29
2018-01-15T11:58:18.329Z,80.77
2018-01-15T12:00:45.224Z,80.94
2018-01-15T12:03:12.077Z,81.31
2018-01-15T12:05:39.217Z,81.23
2018-01-15T12:08:06.388Z,81.98
2018-01-15T12:10:33.368Z,82.17
2018-01-15T12:13:00.258Z,82.21
2018-01-15T12:15:28.245Z,82.52
2018-01-15T12:17:57.422Z,82.59
2018-01-15T12:20:24.554Z,83.15
2018-01-15T12:22:55.446Z,83.31
2018-01-15T12:25:22.394Z,83.74
2018-01-15T12:27:50.964Z,83.72
2018-01-15T12:30:20.734Z,83.82
2018-01-15T12:32:55.291Z,83.76
2018-01-15T12:35:27.510Z,84.18
2018-01-15T12:37:55.978Z,84.19
2018-01-15T12:40:23.744Z,84.19
2018-01-15T12:42:50.778Z,84.35
2018-01-15T12:45:17.808Z,84.14
2018-01-15T12:47:45.618Z,84.32
2018-01-15T12:50:12.756Z,84.29
2018-01-15T12:52:40.006Z,84.19
2018-01-15T12:55:12.445Z,84.32
2018-01-15T12:57:40.460Z,84.54
2018-01-15T13:00:07.659Z,84.62
2018-01-15T13:02:35.549Z,84.63
2018-01-15T13:05:03.343Z,84.72
2018-01-15T13:07:48.674Z,84.83
2018-01-15T13:10:16.221Z,84.90
2018-01-15T13:12:43.645Z,85.70
2018-01-15T13:15:11.337Z,85.72
2018-01-15T13:17:39.567Z,85.78
2018-01-15T13:20:09.293Z,85.51
2018-01-15T13:22:36.516Z,85.48
2018-01-15T13:25:04.374Z,85.43
2018-01-15T13:27:32.812Z,85.31
2018-01-15T13:29:59.846Z,85.10
2018-01-15T13:32:26.833Z,85.10
2018-01-15T13:34:53.705Z,85.32
2018-01-15T13:37:20.898Z,85.12
2018-01-15T13:39:49.057Z,85.00
2018-01-15T13:42:17.856Z,85.11
2018-01-15T13:44:45.017Z,85.27
2018-01-15T13:47:12.958Z,85.54
2018-01-15T13:49:39.916Z,85.84
2018-01-15T13:52:07.762Z,85.86
2018-01-15T13:54:34.657Z,86.61
2018-01-15T13:57:01.476Z,87.17
2018-01-15T13:59:28.621Z,88.17
2018-01-15T14:01:55.742Z,88.12
2018-01-15T14:04:22.575Z,88.72
2018-01-15T14:06:49.402Z,88.76
2018-01-15T14:09:16.494Z,89.11
2018-01-15T14:11:44.052Z,90.25
2018-01-15T14:14:11.479Z,89.48
2018-01-15T14:16:39.014Z,89.72
2018-01-15T14:19:06.359Z,89.76
2018-01-15T14:21:33.308Z,90.35
2018-01-15T14:24:00.874Z,90.78
2018-01-15T14:26:28.327Z,91.06
2018-01-15T14:28:55.073Z,91.48
2018-01-15T14:31:22.005Z,91.33
2018-01-15T14:33:48.796Z,91.60
2018-01-15T14:36:15.582Z,91.37
2018-01-15T14:38:42.392Z,90.84
2018-01-15T14:41:09.154Z,90.84
2018-01-15T14:43:35.916Z,91.20
2018-01-15T14:46:02.722Z,90.89
2018-01-15T14:48:30.138Z,90.83
2018-01-15T14:50:56.924Z,90.67
2018-01-15T14:53:23.704Z,91.24
2018-01-15T14:55:50.482Z,91.15
2018-01-15T14:58:17.231Z,90.65
2018-01-15T15:00:46.589Z,91.55
2018-01-15T15:03:13.560Z,91.27
2018-01-15T15:05:40.405Z,91.47
2018-01-15T15:08:08.645Z,91.76
2018-01-15T15:10:35.410Z,92.15
2018-01-15T15:13:02.162Z,92.85
2018-01-15T15:15:29.579Z,93.01
2018-01-15T15:17:56.415Z,92.56
2018-01-15T15:20:23.494Z,92.69
2018-01-15T15:22:50.309Z,92.68
2018-01-15T15:25:17.097Z,92.73
2018-01-15T15:27:43.943Z,92.73
2018-01-15T15:30:11.339Z,92.98
2018-01-15T15:32:38.171Z,93.06
2018-01-15T15:35:05.292Z,93.18
2018-01-15T15:37:32.451Z,93.22
2018-01-15T15:39:59.262Z,93.24
2018-01-15T15:42:26.004Z,93.41
2018-01-15T15:44:53.252Z,93.31
2018-01-15T15:47:20.853Z,93.44
2018-01-15T15:49:47.649Z,93.37
2018-01-15T15:52:14.432Z,93.57
2018-01-15T15:54:41.216Z,93.71
2018-01-15T15:57:08.744Z,93.73
2018-01-15T15:59:35.576Z,93.36
2018-01-15T16:02:02.430Z,93.04
2018-01-15T16:04:29.228Z,93.28
2018-01-15T16:06:56.063Z,93.24
2018-01-15T16:09:23.879Z,93.44
2018-01-15T16:11:50.648Z,93.30
2018-01-15T16:14:17.545Z,93.37
2018-01-15T16:16:44.538Z,93.54
2018-01-15T16:19:11.911Z,93.72
2018-01-15T16:21:38.722Z,93.20
2018-01-15T16:24:05.617Z,93.22
2018-01-15T16:26:32.382Z,93.56
2018-01-15T16:28:59.632Z,93.45
2018-01-15T16:31:27.048Z,93.67
2018-01-15T16:33:54.035Z,93.35
2018-01-15T16:36:22.077Z,93.11
2018-01-15T16:38:48.933Z,93.51
2018-01-15T16:41:15.696Z,93.28
2018-01-15T16:43:44.246Z,93.15
2018-01-15T16:46:11.096Z,93.53
2018-01-15T16:48:37.883Z,93.38
2018-01-15T16:51:04.832Z,93.60
2018-01-15T16:53:31.728Z,93.89
2018-01-15T16:55:59.259Z,93.97
2018-01-15T16:58:26.076Z,94.06
2018-01-15T17:00:52.874Z,93.82
2018-01-15T17:03:19.931Z,93.86
2018-01-15T17:05:46.998Z,93.89
2018-01-15T17:08:14.285Z,93.97
2018-01-15T17:10:41.547Z,94.07
2018-01-15T17:13:08.633Z,93.98
2018-01-15T17:15:36.748Z,94.03
2018-01-15T17:18:04.243Z,94.48
2018-01-15T17:20:31.088Z,94.39
2018-01-15T17:22:58.659Z,94.62
2018-01-15T17:25:26.178Z,94.20
2018-01-15T17:27:52.952Z,94.58
2018-01-15T17:30:19.710Z,94.67
2018-01-15T17:32:46.845Z,94.79
2018-01-15T17:35:14.801Z,94.10
2018-01-15T17:37:41.602Z,94.62
2018-01-15T17:40:08.436Z,94.58
2018-01-15T17:42:36.259Z,95.27
2018-01-15T17:45:03.142Z,94.64
2018-01-15T17:47:29.913Z,94.46
2018-01-15T17:49:56.698Z,94.34
2018-01-15T17:52:25.085Z,94.69
2018-01-15T17:54:52.169Z,94.59
2018-01-15T17:57:19.683Z,94.66
2018-01-15T17:59:47.585Z,94.68
2018-01-15T18:02:16.060Z,94.97
2018-01-15T18:04:44.150Z,95.02
2018-01-15T18:07:12.324Z,94.72
2018-01-15T18:09:39.832Z,95.00
2018-01-15T18:12:07.439Z,94.92
2018-01-15T18:14:36.319Z,95.08
2018-01-15T18:17:04.436Z,94.59
2018-01-15T18:19:31.645Z,95.02
2018-01-15T18:21:58.466Z,95.04
2018-01-15T18:24:25.241Z,95.12
2018-01-15T18:26:52.820Z,95.38
2018-01-15T18:29:20.502Z,95.19
2018-01-15T18:31:51.003Z,95.47
2018-01-15T18:34:18.700Z,94.98
2018-01-15T18:36:46.596Z,94.86
2018-01-15T18:39:13.655Z,94.75
2018-01-15T18:41:42.365Z,94.52
2018-01-15T18:44:10.533Z,94.74
2018-01-15T18:46:39.456Z,94.89
2018-01-15T18:49:08.958Z,94.53
2018-01-15T18:51:37.663Z,94.80
2018-01-15T18:54:06.452Z,94.82
2018-01-15T18:56:35.342Z,95.32
2018-01-15T18:59:04.393Z,95.32
2018-01-15T19:01:33.005Z,95.12
2018-01-15T19:04:01.920Z,95.05
2018-01-15T19:06:30.543Z,95.54
2018-01-15T19:08:59.125Z,95.38
2018-01-15T19:11:27.559Z,95.30
2018-01-15T19:13:56.222Z,95.42
2018-01-15T19:16:25.079Z,95.43
2018-01-15T19:18:52.563Z,95.15
2018-01-15T19:21:19.925Z,95.06
2018-01-15T19:23:47.331Z,94.37
2018-01-15T19:26:15.489Z,94.51
2018-01-15T19:28:44.276Z,94.41
2018-01-15T19:31:12.870Z,94.92
2018-01-15T19:33:41.645Z,94.81
2018-01-15T19:36:15.271Z,94.68
2018-01-15T19:40:10.724Z,95.01
2018-01-15T19:58:55.835Z,96.73
2018-01-15T20:01:30.553Z,95.83
2018-01-15T20:17:28.846Z,95.17
2018-01-15T20:19:58.505Z,95.32
2018-01-15T20:22:27.417Z,95.34
2018-01-15T20:24:56.270Z,95.16
2018-01-15T20:27:25.209Z,95.54
2018-01-15T20:29:54.120Z,95.63
2018-01-15T20:32:23.142Z,95.62
2018-01-15T20:34:52.102Z,95.56
2018-01-15T20:37:21.542Z,95.60
2018-01-15T20:39:51.613Z,96.34
2018-01-15T20:42:20.520Z,95.58
2018-01-15T20:44:50.114Z,94.60
2018-01-15T20:47:19.725Z,94.05
2018-01-15T20:49:49.333Z,93.66
2018-01-15T20:52:18.650Z,94.19
2018-01-15T20:54:47.411Z,94.21
2018-01-15T20:57:15.339Z,94.78
2018-01-15T20:59:42.804Z,94.31
2018-01-15T21:02:11.642Z,94.42
2018-01-15T21:04:40.092Z,94.24
2018-01-15T21:07:08.614Z,93.97
2018-01-15T21:09:37.561Z,93.53
2018-01-15T21:12:06.197Z,94.53
2018-01-15T21:14:36.271Z,94.45
2018-01-15T21:17:05.285Z,94.63
2018-01-15T21:19:33.462Z,94.54
2018-01-15T21:22:02.277Z,95.06
2018-01-15T21:24:30.675Z,95.08
2018-01-15T21:26:59.242Z,95.12
2018-01-15T21:29:35.944Z,95.26
2018-01-15T21:32:07.750Z,95.38
2018-01-15T21:34:35.544Z,95.79
2018-01-15T21:37:04.283Z,95.90
2018-01-15T21:39:31.746Z,95.60
2018-01-15T21:42:12.072Z,95.63
2018-01-15T21:44:40.350Z,95.83
2018-01-15T21:47:07.777Z,96.15
2018-01-15T21:49:34.930Z,96.06
2018-01-15T21:52:03.070Z,96.15
2018-01-15T21:54:30.190Z,96.24
2018-01-15T21:56:57.380Z,95.92
2018-01-15T21:59:24.751Z,96.06
2018-01-15T22:01:51.766Z,95.97
2018-01-15T22:04:18.914Z,96.18
2018-01-15T22:06:46.065Z,96.41
2018-01-15T22:09:13.927Z,96.73
2018-01-15T22:11:42.153Z,97.04
2018-01-15T22:14:09.748Z,97.76
2018-01-15T22:16:38.082Z,97.63
2018-01-15T22:19:05.158Z,97.70
2018-01-15T22:21:32.047Z,97.34
2018-01-15T22:24:00.947Z,97.28
2018-01-15T22:26:27.974Z,97.18
2018-01-15T22:28:54.889Z,97.66
2018-01-15T22:31:21.882Z,97.51
2018-01-15T22:33:56.682Z,97.49
2018-01-15T22:36:31.305Z,97.60
2018-01-15T22:41:44.122Z,97.86
2018-01-15T22:44:16.837Z,97.76
2018-01-15T22:46:45.150Z,97.79
2018-01-15T22:49:17.553Z,97.98
2018-01-15T22:51:45.108Z,98.07
2018-01-15T22:54:13.476Z,98.09
2018-01-15T22:56:41.112Z,98.12
2018-01-15T22:59:09.286Z,98.42
2018-01-15T23:01:37.612Z,98.11
2018-01-15T23:22:18.890Z,98.52
2018-01-15T23:24:45.854Z,98.48
2018-01-15T23:27:12.775Z,98.54
2018-01-15T23:29:39.684Z,98.28
2018-01-15T23:32:06.640Z,98.33
2018-01-15T23:34:33.608Z,98.42
2018-01-15T23:37:00.585Z,98.16
2018-01-15T23:39:27.465Z,98.42
2018-01-15T23:41:54.298Z,98.24
2018-01-15T23:44:21.197Z,98.18
2018-01-15T23:46:48.050Z,98.32
2018-01-15T23:49:16.050Z,98.35
2018-01-15T23:51:44.209Z,98.63
2018-01-15T23:54:23.520Z,98.81
2018-01-15T23:56:50.364Z,98.64
2018-01-15T23:59:17.945Z,98.43
